createdAt,value
2019-04-05T00:02:13.875Z,61.73
2019-04-05T00:04:43.502Z,61.90
2019-04-05T00:07:13.106Z,61.79
2019-04-05T00:09:42.749Z,61.91
2019-04-05T00:12:12.367Z,61.85
2019-04-05T00:14:41.998Z,61.84
2019-04-05T00:17:11.631Z,61.82
2019-04-05T00:19:41.240Z,61.52
2019-04-05T00:22:10.847Z,61.56
2019-04-05T00:24:40.481Z,61.52
2019-04-05T00:27:10.092Z,61.38
2019-04-05T00:29:39.727Z,61.39
2019-04-05T00:32:09.344Z,61.37
2019-04-05T00:34:38.961Z,61.19
2019-04-05T00:37:08.565Z,61.13
2019-04-05T00:39:38.188Z,61.15
2019-04-05T00:42:07.819Z,61.18
2019-04-05T00:44:37.434Z,61.21
2019-04-05T00:47:07.044Z,61.27
2019-04-05T00:49:36.681Z,61.29
2019-04-05T00:52:06.292Z,61.46
2019-04-05T00:54:35.898Z,61.45
2019-04-05T00:57:05.537Z,61.51
2019-04-05T00:59:35.154Z,61.55
2019-04-05T01:02:05.499Z,61.53
2019-04-05T01:04:35.116Z,61.47
2019-04-05T01:07:05.196Z,61.24
2019-04-05T01:09:34.814Z,61.19
2019-04-05T01:12:04.500Z,61.19
2019-04-05T01:14:34.197Z,61.34
2019-04-05T01:17:03.825Z,61.34
2019-04-05T01:19:35.749Z,61.22
2019-04-05T01:22:09.180Z,61.21
2019-04-05T01:24:39.260Z,60.84
2019-04-05T01:27:09.568Z,60.95
2019-04-05T01:29:39.181Z,60.87
2019-04-05T01:32:09.449Z,60.91
2019-04-05T01:34:40.767Z,60.88
2019-04-05T01:37:13.460Z,60.93
2019-04-05T01:39:43.092Z,60.81
2019-04-05T01:42:13.639Z,60.64
2019-04-05T01:44:44.786Z,60.55
2019-04-05T01:47:14.814Z,60.45
2019-04-05T01:49:44.568Z,60.57
2019-04-05T01:52:14.191Z,60.73
2019-04-05T01:54:43.807Z,60.81
2019-04-05T01:57:13.424Z,60.83
2019-04-05T01:59:43.094Z,60.67
2019-04-05T02:02:12.725Z,60.56
2019-04-05T02:04:42.346Z,60.42
2019-04-05T02:07:11.951Z,60.44
2019-04-05T02:09:41.645Z,60.45
2019-04-05T02:12:12.785Z,60.33
2019-04-05T02:14:44.008Z,60.21
2019-04-05T02:17:16.785Z,60.10
2019-04-05T02:19:46.408Z,60.15
2019-04-05T02:22:16.085Z,60.20
2019-04-05T02:24:45.697Z,60.51
2019-04-05T02:27:16.839Z,60.57
2019-04-05T02:29:46.477Z,60.44
2019-04-05T02:32:16.154Z,60.39
2019-04-05T02:34:45.761Z,60.39
2019-04-05T02:37:15.442Z,60.30
2019-04-05T02:39:45.052Z,60.23
2019-04-05T02:42:15.710Z,60.36
2019-04-05T02:44:49.338Z,60.33
2019-04-05T02:47:20.888Z,60.12
2019-04-05T02:49:53.393Z,60.20
2019-04-05T02:52:25.013Z,60.34
2019-04-05T02:54:55.536Z,60.37
2019-04-05T02:57:26.180Z,60.44
2019-04-05T02:59:56.345Z,60.45
2019-04-05T03:02:26.880Z,60.62
2019-04-05T03:04:57.247Z,60.62
2019-04-05T03:07:29.244Z,60.58
2019-04-05T03:10:00.169Z,60.48
2019-04-05T03:12:30.286Z,60.57
2019-04-05T03:15:03.582Z,60.68
2019-04-05T03:17:36.322Z,60.71
2019-04-05T03:20:07.862Z,60.63
2019-04-05T03:22:37.808Z,60.71
2019-04-05T03:25:08.950Z,60.70
2019-04-05T03:27:39.886Z,60.57
2019-04-05T03:30:09.730Z,60.81
2019-04-05T03:32:39.581Z,60.96
2019-04-05T03:35:09.608Z,60.99
2019-04-05T03:37:39.613Z,61.06
2019-04-05T03:40:10.044Z,61.06
2019-04-05T03:42:41.625Z,61.18
2019-04-05T03:45:11.587Z,61.45
2019-04-05T03:47:41.322Z,61.65
2019-04-05T03:50:11.366Z,61.82
2019-04-05T03:52:41.043Z,62.21
2019-04-05T03:55:10.945Z,62.41
2019-04-05T03:57:40.572Z,62.50
2019-04-05T04:00:13.052Z,62.52
2019-04-05T04:02:44.059Z,62.70
2019-04-05T04:05:14.203Z,62.70
2019-04-05T04:07:43.887Z,62.96
2019-04-05T04:10:19.527Z,63.47
2019-04-05T04:12:49.902Z,63.40
2019-04-05T04:15:19.736Z,63.54
2019-04-05T04:17:49.669Z,63.58
2019-04-05T04:20:41.846Z,63.68
2019-04-05T04:23:12.377Z,63.79
2019-04-05T04:25:43.925Z,63.79
2019-04-05T04:28:13.856Z,64.13
2019-04-05T04:30:43.748Z,64.26
2019-04-05T04:33:13.770Z,64.62
2019-04-05T04:35:44.030Z,64.85
2019-04-05T04:38:13.773Z,65.01
2019-04-05T04:40:45.103Z,64.68
2019-04-05T04:43:15.834Z,64.79
2019-04-05T04:45:45.800Z,65.14
2019-04-05T04:48:15.872Z,65.10
2019-04-05T04:50:45.790Z,65.69
2019-04-05T04:53:16.039Z,65.72
2019-04-05T04:55:46.097Z,66.10
2019-04-05T04:58:15.787Z,66.33
2019-04-05T05:00:45.829Z,66.67
2019-04-05T05:03:15.508Z,67.13
2019-04-05T05:05:45.720Z,67.50
2019-04-05T05:08:15.663Z,67.15
2019-04-05T05:10:45.927Z,66.72
2019-04-05T05:13:15.860Z,66.94
2019-04-05T05:15:45.550Z,66.65
2019-04-05T05:18:15.693Z,66.43
2019-04-05T05:20:45.584Z,66.46
2019-04-05T05:23:15.591Z,66.78
2019-04-05T05:25:47.042Z,66.88
2019-04-05T05:28:17.085Z,66.99
2019-04-05T05:30:46.783Z,66.84
2019-04-05T05:33:16.605Z,66.62
2019-04-05T05:35:46.620Z,66.87
2019-04-05T05:38:16.487Z,66.47
2019-04-05T05:40:46.176Z,66.34
2019-04-05T05:43:15.795Z,66.04
2019-04-05T05:45:46.977Z,66.58
2019-04-05T05:48:17.190Z,66.95
2019-04-05T05:50:47.315Z,67.02
2019-04-05T05:53:16.924Z,66.88
2019-04-05T05:55:46.568Z,66.70
2019-04-05T05:58:16.172Z,67.19
2019-04-05T06:00:46.563Z,67.26
2019-04-05T06:03:16.730Z,66.84
2019-04-05T06:05:46.607Z,66.96
2019-04-05T06:08:16.204Z,67.05
2019-04-05T06:10:45.841Z,66.78
2019-04-05T06:13:15.441Z,66.13
2019-04-05T06:15:45.067Z,65.73
2019-04-05T06:18:14.670Z,65.34
2019-04-05T06:20:44.543Z,65.24
2019-04-05T06:23:14.179Z,65.50
2019-04-05T06:25:43.791Z,65.77
2019-04-05T06:28:13.421Z,65.67
2019-04-05T06:30:43.017Z,65.60
2019-04-05T06:33:12.631Z,65.09
2019-04-05T06:35:42.244Z,64.97
2019-04-05T06:38:11.876Z,65.51
2019-04-05T06:40:41.493Z,65.25
2019-04-05T06:43:11.104Z,65.27
2019-04-05T06:45:40.754Z,65.04
2019-04-05T06:48:19.167Z,64.59
2019-04-05T06:50:41.754Z,64.44
2019-04-05T06:53:11.379Z,63.91
2019-04-05T06:55:40.984Z,62.95
2019-04-05T06:58:10.718Z,62.17
2019-04-05T07:00:40.500Z,61.89
2019-04-05T07:03:10.119Z,61.93
2019-04-05T07:05:39.809Z,61.34
2019-04-05T07:08:09.447Z,61.70
2019-04-05T07:10:39.057Z,61.89
2019-04-05T07:13:08.738Z,62.21
2019-04-05T07:15:38.469Z,62.38
2019-04-05T07:18:08.182Z,61.96
2019-04-05T07:20:37.787Z,61.33
2019-04-05T07:23:07.437Z,61.12
2019-04-05T07:25:37.056Z,61.04
2019-04-05T07:28:06.667Z,61.19
2019-04-05T07:30:36.359Z,61.47
2019-04-05T07:33:06.087Z,61.43
2019-04-05T07:35:35.697Z,61.23
2019-04-05T07:38:05.385Z,61.32
2019-04-05T07:40:34.983Z,61.37
2019-04-05T07:43:04.669Z,61.11
2019-04-05T07:45:34.279Z,61.10
2019-04-05T07:48:03.926Z,61.37
2019-04-05T07:50:33.528Z,61.15
2019-04-05T07:53:03.226Z,61.27
2019-04-05T07:55:32.854Z,61.14
2019-04-05T07:58:02.526Z,61.02
2019-04-05T08:00:56.098Z,60.88
2019-04-05T08:03:26.559Z,60.99
2019-04-05T08:05:56.613Z,60.91
2019-04-05T08:08:33.211Z,60.95
2019-04-05T08:11:03.359Z,61.12
2019-04-05T08:13:34.962Z,61.02
2019-04-05T08:16:04.702Z,60.95
2019-04-05T08:18:34.332Z,60.71
2019-04-05T08:21:04.010Z,60.49
2019-04-05T08:23:33.708Z,59.86
2019-04-05T08:26:03.419Z,59.48
2019-04-05T08:28:33.078Z,58.69
2019-04-05T08:31:02.676Z,58.29
2019-04-05T08:33:32.308Z,57.50
2019-04-05T08:36:01.906Z,56.74
2019-04-05T08:38:31.530Z,56.93
2019-04-05T08:41:01.205Z,57.25
2019-04-05T08:43:30.811Z,57.07
2019-04-05T08:46:00.425Z,57.02
2019-04-05T08:48:30.153Z,56.01
2019-04-05T08:50:59.746Z,55.56
2019-04-05T08:53:29.387Z,55.00
2019-04-05T08:55:58.991Z,54.32
2019-04-05T08:58:33.476Z,53.75
2019-04-05T09:00:59.941Z,52.88
2019-04-05T09:03:29.579Z,52.02
2019-04-05T09:05:59.185Z,51.86
2019-04-05T09:08:28.843Z,52.54
2019-04-05T09:10:58.438Z,52.20
2019-04-05T09:13:28.069Z,52.37
2019-04-05T09:15:57.697Z,52.24
2019-04-05T09:18:27.900Z,51.83
2019-04-05T09:20:57.506Z,52.03
2019-04-05T09:23:27.135Z,52.56
2019-04-05T09:25:56.740Z,52.14
2019-04-05T09:28:26.351Z,52.17
2019-04-05T09:30:55.960Z,51.76
2019-04-05T09:33:25.763Z,51.28
2019-04-05T09:35:55.366Z,50.52
2019-04-05T09:38:24.987Z,50.45
2019-04-05T09:40:54.593Z,49.89
2019-04-05T09:43:24.216Z,48.68
2019-04-05T09:45:53.835Z,48.48
2019-04-05T09:48:23.539Z,48.02
2019-04-05T09:50:53.250Z,48.11
2019-04-05T09:53:22.986Z,48.36
2019-04-05T09:55:52.549Z,48.13
2019-04-05T09:58:22.171Z,48.43
2019-04-05T10:00:51.853Z,48.59
2019-04-05T10:03:21.487Z,48.89
2019-04-05T10:05:51.098Z,48.90
2019-04-05T10:08:20.720Z,49.21
2019-04-05T10:10:51.213Z,48.91
2019-04-05T10:13:20.812Z,48.50
2019-04-05T10:15:50.432Z,48.30
2019-04-05T10:18:20.050Z,48.25
2019-04-05T10:20:49.683Z,47.60
2019-04-05T10:23:19.301Z,47.53
2019-04-05T10:25:48.897Z,47.18
2019-04-05T10:28:18.518Z,47.01
2019-04-05T10:30:48.161Z,46.55
2019-04-05T10:33:17.743Z,45.98
2019-04-05T10:35:47.359Z,45.75
2019-04-05T10:38:17.735Z,45.55
2019-04-05T10:40:47.364Z,45.70
2019-04-05T10:43:17.002Z,45.86
2019-04-05T10:45:47.965Z,46.49
2019-04-05T10:48:17.590Z,46.71
2019-04-05T10:50:47.261Z,46.29
2019-04-05T10:53:16.899Z,46.22
2019-04-05T10:55:46.507Z,45.64
2019-04-05T10:58:16.133Z,45.14
2019-04-05T11:00:45.742Z,45.04
2019-04-05T11:03:15.354Z,45.18
2019-04-05T11:05:44.969Z,44.86
2019-04-05T11:08:14.597Z,44.61
2019-04-05T11:10:44.264Z,44.45
2019-04-05T11:13:14.270Z,43.72
2019-04-05T11:15:44.062Z,41.97
2019-04-05T11:18:13.827Z,41.51
2019-04-05T11:20:43.748Z,40.39
2019-04-05T11:23:13.356Z,39.91
2019-04-05T11:25:43.133Z,39.08
2019-04-05T11:28:12.735Z,39.03
2019-04-05T11:30:47.638Z,38.62
2019-04-05T11:33:19.768Z,37.48
2019-04-05T11:35:48.839Z,36.54
2019-04-05T11:38:19.420Z,35.01
2019-04-05T11:40:50.184Z,33.77
2019-04-05T11:43:21.207Z,33.19
2019-04-05T11:45:51.684Z,32.02
2019-04-05T11:48:21.337Z,30.81
2019-04-05T11:50:50.954Z,29.39
2019-04-05T11:53:22.143Z,26.59
2019-04-05T11:55:51.918Z,26.43
2019-04-05T11:58:21.499Z,25.55
2019-04-05T12:00:52.775Z,26.34
2019-04-05T12:03:24.294Z,25.45
2019-04-05T12:05:53.934Z,22.25
2019-04-05T12:08:23.569Z,20.87
2019-04-05T12:10:53.213Z,20.42
2019-04-05T12:13:22.819Z,20.99
2019-04-05T12:15:52.439Z,22.04
2019-04-05T12:18:22.057Z,22.10
2019-04-05T12:20:59.607Z,22.82
2019-04-05T12:23:23.032Z,24.61
2019-04-05T12:25:54.523Z,26.16
2019-04-05T12:28:24.004Z,27.90
2019-04-05T12:30:53.636Z,28.92
2019-04-05T12:33:23.245Z,28.87
2019-04-05T12:35:56.309Z,26.26
2019-04-05T12:38:35.996Z,22.54
2019-04-05T12:41:06.458Z,19.43
2019-04-05T12:43:36.072Z,17.84
2019-04-05T12:46:06.334Z,16.93
2019-04-05T12:48:35.926Z,17.84
2019-04-05T12:51:05.949Z,17.86
2019-04-05T12:53:35.539Z,17.48
2019-04-05T12:56:05.963Z,17.17
2019-04-05T12:58:36.649Z,17.66
2019-04-05T13:01:08.309Z,19.03
2019-04-05T13:03:38.498Z,20.03
2019-04-05T13:06:08.126Z,18.84
2019-04-05T13:08:37.732Z,17.54
2019-04-05T13:11:07.379Z,16.05
2019-04-05T13:13:37.046Z,14.94
2019-04-05T13:16:09.788Z,14.32
2019-04-05T13:18:38.017Z,14.02
2019-04-05T13:21:15.307Z,14.68
2019-04-05T13:23:38.983Z,15.16
2019-04-05T13:26:11.319Z,16.26
2019-04-05T13:28:40.035Z,16.53
2019-04-05T13:31:09.610Z,15.53
2019-04-05T13:33:39.225Z,15.14
2019-04-05T13:36:08.849Z,14.65
2019-04-05T13:38:38.452Z,14.48
2019-04-05T13:41:09.653Z,15.08
2019-04-05T13:43:39.277Z,16.30
2019-04-05T13:46:21.074Z,17.46
2019-04-05T13:48:40.694Z,19.35
2019-04-05T13:51:12.163Z,21.17
2019-04-05T13:53:41.683Z,21.44
2019-04-05T13:56:11.306Z,20.29
2019-04-05T13:58:40.917Z,18.94
2019-04-05T14:01:10.540Z,18.06
2019-04-05T14:03:40.400Z,18.05
2019-04-05T14:06:10.827Z,18.15
2019-04-05T14:08:41.827Z,18.04
2019-04-05T14:11:11.751Z,18.14
2019-04-05T14:13:43.062Z,18.63
2019-04-05T14:16:13.151Z,18.47
2019-04-05T14:18:49.411Z,17.79
2019-04-05T14:21:14.514Z,19.09
2019-04-05T14:23:44.111Z,21.12
2019-04-05T14:26:13.761Z,23.27
2019-04-05T14:28:43.381Z,24.71
2019-04-05T14:31:12.989Z,25.66
2019-04-05T14:33:42.600Z,26.56
2019-04-05T14:36:13.010Z,27.31
2019-04-05T14:38:42.614Z,27.68
2019-04-05T14:41:12.238Z,28.41
2019-04-05T14:43:44.545Z,28.85
2019-04-05T14:46:13.170Z,29.46
2019-04-05T14:48:42.786Z,29.55
2019-04-05T14:51:12.416Z,29.90
2019-04-05T14:53:42.847Z,30.13
2019-04-05T14:56:12.458Z,30.39
2019-04-05T14:58:42.650Z,31.04
2019-04-05T15:01:12.384Z,31.23
2019-04-05T15:03:42.258Z,31.90
2019-04-05T15:06:11.870Z,32.15
2019-04-05T15:08:41.547Z,32.25
2019-04-05T15:11:11.397Z,32.53
2019-04-05T15:13:41.814Z,32.47
2019-04-05T15:16:13.683Z,32.80
2019-04-05T15:18:42.802Z,33.00
2019-04-05T15:21:12.432Z,33.74
2019-04-05T15:23:45.407Z,34.61
2019-04-05T15:26:13.389Z,34.77
2019-04-05T15:28:43.001Z,35.01
2019-04-05T15:31:12.625Z,35.64
2019-04-05T15:33:42.245Z,36.35
2019-04-05T15:36:11.898Z,36.89
2019-04-05T15:38:41.510Z,37.09
2019-04-05T15:41:11.148Z,37.15
2019-04-05T15:43:40.746Z,37.22
2019-04-05T15:46:10.373Z,37.55
2019-04-05T15:48:39.978Z,37.65
2019-04-05T15:51:09.621Z,37.80
2019-04-05T15:53:39.225Z,38.04
2019-04-05T15:56:09.707Z,38.79
2019-04-05T15:58:39.329Z,39.41
2019-04-05T16:01:09.207Z,40.09
2019-04-05T16:03:38.814Z,40.90
2019-04-05T16:06:08.454Z,40.86
2019-04-05T16:08:38.513Z,41.10
2019-04-05T16:11:08.229Z,41.66
2019-04-05T16:13:37.848Z,42.25
2019-04-05T16:16:07.555Z,42.90
2019-04-05T16:18:37.164Z,43.33
2019-04-05T16:21:06.785Z,43.51
2019-04-05T16:23:36.406Z,43.49
2019-04-05T16:26:06.072Z,43.85
2019-04-05T16:28:35.687Z,44.21
2019-04-05T16:31:05.399Z,44.31
2019-04-05T16:33:35.002Z,44.64
2019-04-05T16:36:04.618Z,44.97
2019-04-05T16:38:34.228Z,45.25
2019-04-05T16:41:03.854Z,45.62
2019-04-05T16:43:33.935Z,46.01
2019-04-05T16:46:03.623Z,46.29
2019-04-05T16:48:33.243Z,46.51
2019-04-05T16:51:02.855Z,46.89
2019-04-05T16:53:32.616Z,46.96
2019-04-05T16:56:02.247Z,47.60
2019-04-05T16:58:31.851Z,48.21
2019-04-05T17:01:01.460Z,48.38
2019-04-05T17:03:31.070Z,48.85
2019-04-05T17:06:00.697Z,48.86
2019-04-05T17:08:30.316Z,49.08
2019-04-05T17:10:59.967Z,49.25
2019-04-05T17:13:29.581Z,49.73
2019-04-05T17:15:59.216Z,49.91
2019-04-05T17:18:28.828Z,50.18
2019-04-05T17:20:59.133Z,50.42
2019-04-05T17:23:29.462Z,50.67
2019-04-05T17:25:59.079Z,51.03
2019-04-05T17:28:28.717Z,51.51
2019-04-05T17:30:58.315Z,51.78
2019-04-05T17:33:27.956Z,52.10
2019-04-05T17:35:57.569Z,52.44
2019-04-05T17:38:27.259Z,52.78
2019-04-05T17:40:56.995Z,53.27
2019-04-05T17:43:26.610Z,53.54
2019-04-05T17:45:56.225Z,54.08
2019-04-05T17:48:25.846Z,54.29
2019-04-05T17:50:55.531Z,54.52
2019-04-05T17:53:25.155Z,54.82
2019-04-05T17:55:55.095Z,55.09
2019-04-05T17:58:28.321Z,55.48
2019-04-05T18:00:57.992Z,55.72
2019-04-05T18:03:27.611Z,55.96
2019-04-05T18:05:57.620Z,56.33
2019-04-05T18:08:27.231Z,56.76
2019-04-05T18:10:57.194Z,57.19
2019-04-05T18:13:26.836Z,57.43
2019-04-05T18:15:56.445Z,57.49
2019-04-05T18:18:26.082Z,57.57
2019-04-05T18:20:58.250Z,57.92
2019-04-05T18:23:29.214Z,58.05
2019-04-05T18:25:58.822Z,58.17
2019-04-05T18:28:28.468Z,58.33
2019-04-05T18:30:58.082Z,58.79
2019-04-05T18:33:27.797Z,58.95
2019-04-05T18:35:58.234Z,59.26
2019-04-05T18:38:27.851Z,59.31
2019-04-05T18:40:57.621Z,59.34
2019-04-05T18:43:27.804Z,59.37
2019-04-05T18:46:00.125Z,59.44
2019-04-05T18:48:29.724Z,59.66
2019-04-05T18:50:59.355Z,59.77
2019-04-05T18:53:37.548Z,59.74
2019-04-05T18:56:01.456Z,59.79
2019-04-05T18:58:31.123Z,59.99
2019-04-05T19:01:00.868Z,59.90
2019-04-05T19:03:30.489Z,59.98
2019-04-05T19:06:00.080Z,60.19
2019-04-05T19:08:39.547Z,60.36
2019-04-05T19:11:01.051Z,60.43
2019-04-05T19:13:30.674Z,60.63
2019-04-05T19:16:00.839Z,60.76
2019-04-05T19:18:30.493Z,60.99
2019-04-05T19:21:00.154Z,61.04
2019-04-05T19:23:31.365Z,61.15
2019-04-05T19:26:00.973Z,61.30
2019-04-05T19:28:30.578Z,61.32
2019-04-05T19:48:39.634Z,62.47
2019-04-05T19:51:09.201Z,62.57
2019-04-05T19:53:38.831Z,62.74
2019-04-05T19:56:08.472Z,62.79
2019-04-05T19:58:38.099Z,62.94
2019-04-05T20:01:08.097Z,63.13
2019-04-05T20:03:37.769Z,63.28
2019-04-05T20:06:07.949Z,63.35
2019-04-05T20:08:37.745Z,63.54
2019-04-05T20:11:07.456Z,63.72
2019-04-05T20:13:37.083Z,63.85
2019-04-05T20:16:06.693Z,63.94
2019-04-05T20:18:36.329Z,64.16
2019-04-05T20:21:06.041Z,64.27
2019-04-05T20:23:35.632Z,64.45
2019-04-05T20:26:05.358Z,64.45
2019-04-05T20:28:34.927Z,64.56
2019-04-05T20:31:06.062Z,64.77
2019-04-05T20:33:35.688Z,64.70
2019-04-05T20:36:05.289Z,64.72
2019-04-05T20:38:34.918Z,64.87
2019-04-05T20:41:04.514Z,65.16
2019-04-05T20:43:34.142Z,65.24
2019-04-05T20:46:03.839Z,65.26
2019-04-05T20:48:33.525Z,65.39
2019-04-05T20:51:03.124Z,65.42
2019-04-05T20:53:32.755Z,65.55
2019-04-05T20:56:02.371Z,65.69
2019-04-05T20:58:31.984Z,65.79
2019-04-05T21:01:01.600Z,65.95
2019-04-05T21:03:31.222Z,65.96
2019-04-05T21:06:01.061Z,66.10
2019-04-05T21:08:34.507Z,66.13
2019-04-05T21:11:04.124Z,66.23
2019-04-05T21:13:33.757Z,66.41
2019-04-05T21:16:03.382Z,66.45
2019-04-05T21:18:33.742Z,66.64
2019-04-05T21:21:03.354Z,66.77
2019-04-05T21:23:34.521Z,66.96
2019-04-05T21:26:05.828Z,67.11
2019-04-05T21:28:35.455Z,67.09
2019-04-05T21:31:05.127Z,67.20
2019-04-05T21:33:34.744Z,67.29
2019-04-05T21:36:04.403Z,67.21
2019-04-05T21:38:34.044Z,67.36
2019-04-05T21:41:03.631Z,67.47
2019-04-05T21:43:33.255Z,67.53
2019-04-05T21:46:02.860Z,67.38
2019-04-05T21:48:32.466Z,67.35
2019-04-05T21:51:03.764Z,67.37
2019-04-05T21:53:33.337Z,67.48
2019-04-05T21:56:04.459Z,67.50
2019-04-05T21:58:34.127Z,67.46
2019-04-05T22:01:05.712Z,67.65
2019-04-05T22:03:35.325Z,67.97
2019-04-05T22:06:05.248Z,68.18
2019-04-05T22:08:35.530Z,68.37
2019-04-05T22:11:05.145Z,68.31
2019-04-05T22:13:34.743Z,68.61
2019-04-05T22:16:04.427Z,68.76
2019-04-05T22:18:34.026Z,68.89
2019-04-05T22:21:03.720Z,68.94
2019-04-05T22:23:33.360Z,69.04
2019-04-05T22:26:02.942Z,69.07
2019-04-05T22:28:32.525Z,69.21
2019-04-05T22:31:02.625Z,69.24
2019-04-05T22:33:32.221Z,69.33
2019-04-05T22:36:01.842Z,69.34
2019-04-05T22:38:31.454Z,69.35
2019-04-05T22:41:01.107Z,69.27
2019-04-05T22:43:30.729Z,69.53
2019-04-05T22:46:00.328Z,69.60
2019-04-05T22:48:29.946Z,69.68
2019-04-05T22:51:00.229Z,69.68
2019-04-05T22:53:29.871Z,69.77
2019-04-05T22:55:59.496Z,69.83
2019-04-05T22:58:29.356Z,69.70
2019-04-05T23:00:58.976Z,69.07
2019-04-05T23:03:28.573Z,68.80
2019-04-05T23:05:58.189Z,68.92
2019-04-05T23:08:27.791Z,69.01
2019-04-05T23:10:57.414Z,69.11
2019-04-05T23:13:27.021Z,69.13
2019-04-05T23:15:56.644Z,69.09
2019-04-05T23:18:26.240Z,69.01
2019-04-05T23:20:55.861Z,69.11
2019-04-05T23:23:26.230Z,69.10
2019-04-05T23:25:55.856Z,69.14
2019-04-05T23:28:25.473Z,69.23
2019-04-05T23:30:55.092Z,69.40
2019-04-05T23:33:24.690Z,69.47
2019-04-05T23:35:54.298Z,69.60
2019-04-05T23:38:25.800Z,69.68
2019-04-05T23:40:55.446Z,69.69
2019-04-05T23:43:25.084Z,69.71
2019-04-05T23:45:54.702Z,69.65
2019-04-05T23:48:24.299Z,69.75
2019-04-05T23:50:53.920Z,69.86
2019-04-05T23:53:23.542Z,70.05
2019-04-05T23:55:53.149Z,70.00
2019-04-05T23:58:23.220Z,70.13
